Hb101 — WDJ4626 — position and weather

sailwx.info

Track history (hours):
 
Tides and Currents Weather Stations Pressure Air Temp Water Temp Dewpoint Dewpoint Depression Visibility Wind Speed Wind Dir Waves Ship Positions

Hb101

Owner: HNY Ferry Fleet LLC, New York, NY. More information available from US FCC via Universal Licensing System and Coast Guard Vessel Documentation Center.

Last reported at 2017-Nov-27 21:31 UTC. Time now 2017-Dec-16 05:21 UTC.
Position N 40°42' W 073°58'.
Warning: this ship's position is 18 days out of date.

Length 26 m; draft 2 m.

Type: Passenger vessel. MMSI: 367779540.

Date/timePositionNaut miles runAvg speedWind from/ knotsBaromVisibWave heightAir tempDewpointWater temp
2017-Nov-27 21:31N 40°42' W 073°58'0 0.0
2017-Nov-27 21:30N 40°42' W 073°58'0 0.0
2017-Nov-27 20:59N 40°42' W 073°58'0 0.0
2017-Nov-27 20:30N 40°42' W 073°58'0 0.0
2017-Nov-27 20:00N 40°42' W 073°58'0 0.0
2017-Nov-27 19:30N 40°42' W 073°58'0 0.0
2017-Nov-27 19:00N 40°42' W 073°58'0 0.0
2017-Nov-27 18:30N 40°42' W 073°58'0 0.0
2017-Nov-27 18:00N 40°42' W 073°58'0 0.0
2017-Nov-27 17:30N 40°42' W 073°58'0 0.0
2017-Nov-27 17:00N 40°42' W 073°58'0 0.0
2017-Nov-27 16:29N 40°42' W 073°58'0 0.0
2017-Nov-27 16:00N 40°42' W 073°58'2 3.4
2017-Nov-27 15:30N 40°41' W 074°00'3 6.8
2017-Nov-27 15:00N 40°38' W 074°02'4 7.1
2017-Nov-27 14:30N 40°42' W 074°00'0 0.1
2017-Nov-27 14:00N 40°42' W 074°00'4 7.1
2017-Nov-27 13:30N 40°38' W 074°02'4 6.9
2017-Nov-27 13:00N 40°42' W 074°00'0 0.1
2017-Nov-27 12:30N 40°42' W 074°00'4 7.1
2017-Nov-27 12:00N 40°38' W 074°02'5 9.3
2017-Nov-27 11:30N 40°42' W 073°58'0 0.0
2017-Nov-25 23:36N 40°42' W 073°58'0 0.0
2017-Nov-25 23:30N 40°42' W 073°58'0 0.0
2017-Nov-25 23:00N 40°42' W 073°58'0 0.0
2017-Nov-25 22:30N 40°42' W 073°58'0 0.0
2017-Nov-25 22:00N 40°42' W 073°58'0 0.0
2017-Nov-25 21:30N 40°42' W 073°58'0 0.0
2017-Nov-25 21:00N 40°42' W 073°58'0 0.0
2017-Nov-25 20:30N 40°42' W 073°58'0 0.8
2017-Nov-25 20:01N 40°42' W 073°59'1 2.5
2017-Nov-25 19:30N 40°42' W 074°00'0 0.1
2017-Nov-25 19:00N 40°42' W 074°00'0 0.0
2017-Nov-25 18:30N 40°42' W 074°00'2 0.1
2017-Nov-25 01:06N 40°42' W 073°58'0 0.0
2017-Nov-25 01:00N 40°42' W 073°58'0 0.0
2017-Nov-25 00:30N 40°42' W 073°58'2 3.2
2017-Nov-25 00:00N 40°42' W 074°00'3 5.1
2017-Nov-24 23:30N 40°44' W 073°58'1 1.2
2017-Nov-24 23:00N 40°43' W 073°58'2 4.2
2017-Nov-24 22:30N 40°42' W 074°00'3 6.0
2017-Nov-24 22:00N 40°45' W 073°58'1 2.9
2017-Nov-24 21:30N 40°43' W 073°58'1 3.0
2017-Nov-24 21:00N 40°42' W 073°60'3 5.3
2017-Nov-24 20:30N 40°45' W 073°58'2 4.4
2017-Nov-24 20:00N 40°43' W 073°58'1 2.4
2017-Nov-24 19:31N 40°42' W 073°60'3 5.2
2017-Nov-24 18:59N 40°45' W 073°58'2 4.5
2017-Nov-24 18:31N 40°43' W 073°58'1 2.4
2017-Nov-24 18:00N 40°42' W 073°60'3 5.5
2017-Nov-24 17:31N 40°45' W 073°58'2 4.0
2017-Nov-24 17:01N 40°43' W 073°58'1 1.7
2017-Nov-24 16:30N 40°42' W 073°59'2 4.9
2017-Nov-24 16:00N 40°45' W 073°58'2 4.4
2017-Nov-24 15:31N 40°43' W 073°58'1 2.0
2017-Nov-24 15:00N 40°42' W 073°60'3 5.0
2017-Nov-24 14:30N 40°45' W 073°58'2 4.3
2017-Nov-24 14:00N 40°43' W 073°58'0 0.4
2017-Nov-24 13:30N 40°42' W 073°59'2 4.4
2017-Nov-24 12:59N 40°45' W 073°58'2 4.9
2017-Nov-24 12:31N 40°42' W 073°59'1 1.1
2017-Nov-24 12:01N 40°43' W 073°58'2 4.4
2017-Nov-24 11:30N 40°45' W 073°58'3 5.3
2017-Nov-24 11:00N 40°42' W 073°58'0 0.0
2017-Nov-24 03:33N 40°42' W 073°58'0 0.2
2017-Nov-24 03:30N 40°42' W 073°58'2 4.0
2017-Nov-24 03:01N 40°41' W 074°01'3 6.0
2017-Nov-24 02:30N 40°38' W 074°02'3 6.8
2017-Nov-24 02:00N 40°41' W 074°00'1 1.1
2017-Nov-24 01:30N 40°42' W 074°00'3 6.6
2017-Nov-24 01:00N 40°39' W 074°02'2 3.6
2017-Nov-24 00:30N 40°41' W 074°01'2 3.5
2017-Nov-24 00:00N 40°42' W 074°00'1 3.0
2017-Nov-23 23:31N 40°41' W 074°01'1 2.9
2017-Nov-23 23:01N 40°39' W 074°02'3 5.9
2017-Nov-23 22:30N 40°42' W 073°60'1 2.5
2017-Nov-23 22:00N 40°41' W 074°01'3 6.0
2017-Nov-23 21:30N 40°38' W 074°02'3 6.9
2017-Nov-23 21:00N 40°42' W 074°00'0 0.3
2017-Nov-23 20:31N 40°42' W 074°00'3 6.1
2017-Nov-23 20:00N 40°39' W 074°02'2 4.4
2017-Nov-23 19:31N 40°41' W 074°01'1 2.7
2017-Nov-23 19:01N 40°42' W 074°00'1 2.5
2017-Nov-23 18:30N 40°41' W 074°01'2 4.6
2017-Nov-23 18:01N 40°39' W 074°02'4 7.4
2017-Nov-23 17:30N 40°42' W 073°60'1 2.8
2017-Nov-23 17:00N 40°41' W 074°01'3 5.7
2017-Nov-23 16:30N 40°38' W 074°02'3 6.2
2017-Nov-23 16:00N 40°41' W 074°01'1 2.1
2017-Nov-23 15:30N 40°42' W 073°60'4 7.3
2017-Nov-23 15:00N 40°39' W 074°02'2 4.0
2017-Nov-23 14:30N 40°41' W 074°01'2 3.1
2017-Nov-23 14:00N 40°42' W 074°00'1 2.7
2017-Nov-23 13:31N 40°41' W 074°01'2 4.3
2017-Nov-23 13:01N 40°39' W 074°02'3 6.7
2017-Nov-23 12:30N 40°42' W 074°00'1 2.1
2017-Nov-23 12:00N 40°41' W 074°01'3 5.8
2017-Nov-23 11:30N 40°38' W 074°02'5 9.4
2017-Nov-23 11:00N 40°42' W 073°58'0 0.0
2017-Nov-23 10:30N 40°42' W 073°58'0 0.0
2017-Nov-23 03:43N 40°42' W 073°58'2 7.7
2017-Nov-23 03:30N 40°42' W 074°00'4 8.5
2017-Nov-23 03:00N 40°46' W 073°57'0 0.4
2017-Nov-23 02:30N 40°45' W 073°57'3 6.5
2017-Nov-23 02:00N 40°42' W 073°59'3 5.3
2017-Nov-23 01:30N 40°45' W 073°57'2 3.4
2017-Nov-23 01:00N 40°46' W 073°56'2 4.6
2017-Nov-23 00:30N 40°45' W 073°58'0 0.1
2017-Nov-23 00:00N 40°45' W 073°58'2 4.5
2017-Nov-22 23:30N 40°46' W 073°56'2 3.5
2017-Nov-22 23:00N 40°45' W 073°57'3 7.0
2017-Nov-22 22:31N 40°42' W 074°00'4 8.2
2017-Nov-22 22:00N 40°46' W 073°57'0 0.4
2017-Nov-22 21:30N 40°45' W 073°57'3 7.1
2017-Nov-22 21:01N 40°42' W 073°59'3 5.7
2017-Nov-22 20:30N 40°45' W 073°57'2 3.3
2017-Nov-22 19:59N 40°46' W 073°56'2 4.7
2017-Nov-22 19:30N 40°45' W 073°58'  
2017-Nov-18 00:19N 40°42' W 073°58'0 1.5
2017-Nov-18 00:00N 40°42' W 073°59'3 6.3
2017-Nov-17 23:30N 40°45' W 073°57'4 8.2
2017-Nov-17 23:00N 40°42' W 074°00'4 8.0
2017-Nov-17 22:30N 40°45' W 073°57'1 2.3
2017-Nov-17 22:00N 40°46' W 073°56'  
Track history (hours):
 
Tides and Currents Weather Stations Pressure Air Temp Water Temp Dewpoint Dewpoint Depression Visibility Wind Speed Wind Dir Waves Ship Positions

Hb101

Owner: HNY Ferry Fleet LLC, New York, NY. More information available from US FCC via Universal Licensing System and Coast Guard Vessel Documentation Center.

Last reported at 2017-Nov-27 21:31 UTC. Time now 2017-Dec-16 05:21 UTC.
Position N 40°42' W 073°58'.
Warning: this ship's position is 18 days out of date.

Length 26 m; draft 2 m.

Type: Passenger vessel. MMSI: 367779540.

Date/timePositionNaut miles runAvg speedWind from/ knotsBaromVisibWave heightAir tempDewpointWater temp
2017-Nov-27 21:31N 40°42' W 073°58'0 0.0
2017-Nov-27 21:30N 40°42' W 073°58'0 0.0
2017-Nov-27 20:59N 40°42' W 073°58'0 0.0
2017-Nov-27 20:30N 40°42' W 073°58'0 0.0
2017-Nov-27 20:00N 40°42' W 073°58'0 0.0
2017-Nov-27 19:30N 40°42' W 073°58'0 0.0
2017-Nov-27 19:00N 40°42' W 073°58'0 0.0
2017-Nov-27 18:30N 40°42' W 073°58'0 0.0
2017-Nov-27 18:00N 40°42' W 073°58'0 0.0
2017-Nov-27 17:30N 40°42' W 073°58'0 0.0
2017-Nov-27 17:00N 40°42' W 073°58'0 0.0
2017-Nov-27 16:29N 40°42' W 073°58'0 0.0
2017-Nov-27 16:00N 40°42' W 073°58'2 3.4
2017-Nov-27 15:30N 40°41' W 074°00'3 6.8
2017-Nov-27 15:00N 40°38' W 074°02'4 7.1
2017-Nov-27 14:30N 40°42' W 074°00'0 0.1
2017-Nov-27 14:00N 40°42' W 074°00'4 7.1
2017-Nov-27 13:30N 40°38' W 074°02'4 6.9
2017-Nov-27 13:00N 40°42' W 074°00'0 0.1
2017-Nov-27 12:30N 40°42' W 074°00'4 7.1
2017-Nov-27 12:00N 40°38' W 074°02'5 9.3
2017-Nov-27 11:30N 40°42' W 073°58'0 0.0
2017-Nov-25 23:36N 40°42' W 073°58'0 0.0
2017-Nov-25 23:30N 40°42' W 073°58'0 0.0
2017-Nov-25 23:00N 40°42' W 073°58'0 0.0
2017-Nov-25 22:30N 40°42' W 073°58'0 0.0
2017-Nov-25 22:00N 40°42' W 073°58'0 0.0
2017-Nov-25 21:30N 40°42' W 073°58'0 0.0
2017-Nov-25 21:00N 40°42' W 073°58'0 0.0
2017-Nov-25 20:30N 40°42' W 073°58'0 0.8
2017-Nov-25 20:01N 40°42' W 073°59'1 2.5
2017-Nov-25 19:30N 40°42' W 074°00'0 0.1
2017-Nov-25 19:00N 40°42' W 074°00'0 0.0
2017-Nov-25 18:30N 40°42' W 074°00'2 0.1
2017-Nov-25 01:06N 40°42' W 073°58'0 0.0
2017-Nov-25 01:00N 40°42' W 073°58'0 0.0
2017-Nov-25 00:30N 40°42' W 073°58'2 3.2
2017-Nov-25 00:00N 40°42' W 074°00'3 5.1
2017-Nov-24 23:30N 40°44' W 073°58'1 1.2
2017-Nov-24 23:00N 40°43' W 073°58'2 4.2
2017-Nov-24 22:30N 40°42' W 074°00'3 6.0
2017-Nov-24 22:00N 40°45' W 073°58'1 2.9
2017-Nov-24 21:30N 40°43' W 073°58'1 3.0
2017-Nov-24 21:00N 40°42' W 073°60'3 5.3
2017-Nov-24 20:30N 40°45' W 073°58'2 4.4
2017-Nov-24 20:00N 40°43' W 073°58'1 2.4
2017-Nov-24 19:31N 40°42' W 073°60'3 5.2
2017-Nov-24 18:59N 40°45' W 073°58'2 4.5
2017-Nov-24 18:31N 40°43' W 073°58'1 2.4
2017-Nov-24 18:00N 40°42' W 073°60'3 5.5
2017-Nov-24 17:31N 40°45' W 073°58'2 4.0
2017-Nov-24 17:01N 40°43' W 073°58'1 1.7
2017-Nov-24 16:30N 40°42' W 073°59'2 4.9
2017-Nov-24 16:00N 40°45' W 073°58'2 4.4
2017-Nov-24 15:31N 40°43' W 073°58'1 2.0
2017-Nov-24 15:00N 40°42' W 073°60'3 5.0
2017-Nov-24 14:30N 40°45' W 073°58'2 4.3
2017-Nov-24 14:00N 40°43' W 073°58'0 0.4
2017-Nov-24 13:30N 40°42' W 073°59'2 4.4
2017-Nov-24 12:59N 40°45' W 073°58'2 4.9
2017-Nov-24 12:31N 40°42' W 073°59'1 1.1
2017-Nov-24 12:01N 40°43' W 073°58'2 4.4
2017-Nov-24 11:30N 40°45' W 073°58'3 5.3
2017-Nov-24 11:00N 40°42' W 073°58'0 0.0
2017-Nov-24 03:33N 40°42' W 073°58'0 0.2
2017-Nov-24 03:30N 40°42' W 073°58'2 4.0
2017-Nov-24 03:01N 40°41' W 074°01'3 6.0
2017-Nov-24 02:30N 40°38' W 074°02'3 6.8
2017-Nov-24 02:00N 40°41' W 074°00'1 1.1
2017-Nov-24 01:30N 40°42' W 074°00'3 6.6
2017-Nov-24 01:00N 40°39' W 074°02'2 3.6
2017-Nov-24 00:30N 40°41' W 074°01'2 3.5
2017-Nov-24 00:00N 40°42' W 074°00'1 3.0
2017-Nov-23 23:31N 40°41' W 074°01'1 2.9
2017-Nov-23 23:01N 40°39' W 074°02'3 5.9
2017-Nov-23 22:30N 40°42' W 073°60'1 2.5
2017-Nov-23 22:00N 40°41' W 074°01'3 6.0
2017-Nov-23 21:30N 40°38' W 074°02'3 6.9
2017-Nov-23 21:00N 40°42' W 074°00'0 0.3
2017-Nov-23 20:31N 40°42' W 074°00'3 6.1
2017-Nov-23 20:00N 40°39' W 074°02'2 4.4
2017-Nov-23 19:31N 40°41' W 074°01'1 2.7
2017-Nov-23 19:01N 40°42' W 074°00'1 2.5
2017-Nov-23 18:30N 40°41' W 074°01'2 4.6
2017-Nov-23 18:01N 40°39' W 074°02'4 7.4
2017-Nov-23 17:30N 40°42' W 073°60'1 2.8
2017-Nov-23 17:00N 40°41' W 074°01'3 5.7
2017-Nov-23 16:30N 40°38' W 074°02'3 6.2
2017-Nov-23 16:00N 40°41' W 074°01'1 2.1
2017-Nov-23 15:30N 40°42' W 073°60'4 7.3
2017-Nov-23 15:00N 40°39' W 074°02'2 4.0
2017-Nov-23 14:30N 40°41' W 074°01'2 3.1
2017-Nov-23 14:00N 40°42' W 074°00'1 2.7
2017-Nov-23 13:31N 40°41' W 074°01'2 4.3
2017-Nov-23 13:01N 40°39' W 074°02'3 6.7
2017-Nov-23 12:30N 40°42' W 074°00'1 2.1
2017-Nov-23 12:00N 40°41' W 074°01'3 5.8
2017-Nov-23 11:30N 40°38' W 074°02'5 9.4
2017-Nov-23 11:00N 40°42' W 073°58'0 0.0
2017-Nov-23 10:30N 40°42' W 073°58'0 0.0
2017-Nov-23 03:43N 40°42' W 073°58'2 7.7
2017-Nov-23 03:30N 40°42' W 074°00'4 8.5
2017-Nov-23 03:00N 40°46' W 073°57'0 0.4
2017-Nov-23 02:30N 40°45' W 073°57'3 6.5
2017-Nov-23 02:00N 40°42' W 073°59'3 5.3
2017-Nov-23 01:30N 40°45' W 073°57'2 3.4
2017-Nov-23 01:00N 40°46' W 073°56'2 4.6
2017-Nov-23 00:30N 40°45' W 073°58'0 0.1
2017-Nov-23 00:00N 40°45' W 073°58'2 4.5
2017-Nov-22 23:30N 40°46' W 073°56'2 3.5
2017-Nov-22 23:00N 40°45' W 073°57'3 7.0
2017-Nov-22 22:31N 40°42' W 074°00'4 8.2
2017-Nov-22 22:00N 40°46' W 073°57'0 0.4
2017-Nov-22 21:30N 40°45' W 073°57'3 7.1
2017-Nov-22 21:01N 40°42' W 073°59'3 5.7
2017-Nov-22 20:30N 40°45' W 073°57'2 3.3
2017-Nov-22 19:59N 40°46' W 073°56'2 4.7
2017-Nov-22 19:30N 40°45' W 073°58'  
2017-Nov-18 00:19N 40°42' W 073°58'0 1.5
2017-Nov-18 00:00N 40°42' W 073°59'3 6.3
2017-Nov-17 23:30N 40°45' W 073°57'4 8.2
2017-Nov-17 23:00N 40°42' W 074°00'4 8.0
2017-Nov-17 22:30N 40°45' W 073°57'1 2.3
2017-Nov-17 22:00N 40°46' W 073°56'  

Dump ship's entire track history